sensor_id;sensor_type;location;lat;lon;timestamp;pressure;altitude;pressure_sealevel;temperature;humidity
6194;BME280;3130;41.564;23.280;2022-07-06T00:01:09;98678.59;;;22.27;100.00
6194;BME280;3130;41.564;23.280;2022-07-06T00:03:36;98693.47;;;22.26;100.00
6194;BME280;3130;41.564;23.280;2022-07-06T00:06:04;98688.56;;;22.31;100.00
6194;BME280;3130;41.564;23.280;2022-07-06T00:08:31;98697.19;;;22.40;100.00
6194;BME280;3130;41.564;23.280;2022-07-06T00:10:58;98683.59;;;22.44;100.00
6194;BME280;3130;41.564;23.280;2022-07-06T00:13:27;98675.91;;;22.42;100.00
6194;BME280;3130;41.564;23.280;2022-07-06T00:15:54;98680.50;;;22.40;100.00
6194;BME280;3130;41.564;23.280;2022-07-06T00:18:21;98674.06;;;22.21;100.00
6194;BME280;3130;41.564;23.280;2022-07-06T00:20:48;98665.78;;;22.09;100.00
6194;BME280;3130;41.564;23.280;2022-07-06T00:23:16;98559.44;;;21.41;100.00
6194;BME280;3130;41.564;23.280;2022-07-06T00:25:44;98650.19;;;21.93;100.00
6194;BME280;3130;41.564;23.280;2022-07-06T00:28:11;98658.47;;;21.97;100.00
6194;BME280;3130;41.564;23.280;2022-07-06T00:30:39;98667.63;;;21.93;100.00
6194;BME280;3130;41.564;23.280;2022-07-06T00:33:07;98663.88;;;21.95;100.00
6194;BME280;3130;41.564;23.280;2022-07-06T00:35:34;98545.13;;;21.29;100.00
6194;BME280;3130;41.564;23.280;2022-07-06T00:38:01;98655.22;;;21.95;100.00
6194;BME280;3130;41.564;23.280;2022-07-06T00:40:29;98652.78;;;21.93;100.00
6194;BME280;3130;41.564;23.280;2022-07-06T00:42:56;98641.38;;;21.86;100.00
6194;BME280;3130;41.564;23.280;2022-07-06T00:45:23;98642.53;;;21.84;100.00
6194;BME280;3130;41.564;23.280;2022-07-06T00:47:52;98640.78;;;21.68;100.00
6194;BME280;3130;41.564;23.280;2022-07-06T00:50:20;98626.94;;;21.60;100.00
6194;BME280;3130;41.564;23.280;2022-07-06T00:52:50;98624.94;;;21.54;100.00
6194;BME280;3130;41.564;23.280;2022-07-06T00:55:19;98615.34;;;21.54;100.00
6194;BME280;3130;41.564;23.280;2022-07-06T00:57:47;98614.50;;;21.54;100.00
6194;BME280;3130;41.564;23.280;2022-07-06T01:00:17;98609.66;;;21.51;100.00
6194;BME280;3130;41.564;23.280;2022-07-06T01:02:45;98603.28;;;21.45;100.00
6194;BME280;3130;41.564;23.280;2022-07-06T01:05:15;98603.47;;;21.36;100.00
6194;BME280;3130;41.564;23.280;2022-07-06T01:07:44;98595.03;;;21.34;100.00
6194;BME280;3130;41.564;23.280;2022-07-06T01:10:15;98547.81;;;20.97;100.00
6194;BME280;3130;41.564;23.280;2022-07-06T01:12:43;98562.44;;;21.06;100.00
6194;BME280;3130;41.564;23.280;2022-07-06T01:15:13;98604.81;;;21.32;100.00
6194;BME280;3130;41.564;23.280;2022-07-06T01:17:40;98599.88;;;21.37;100.00
6194;BME280;3130;41.564;23.280;2022-07-06T01:20:10;98594.97;;;21.50;100.00
6194;BME280;3130;41.564;23.280;2022-07-06T01:22:38;98576.38;;;21.45;100.00
6194;BME280;3130;41.564;23.280;2022-07-06T01:25:06;98589.25;;;21.54;100.00
6194;BME280;3130;41.564;23.280;2022-07-06T01:27:34;98605.06;;;21.69;100.00
6194;BME280;3130;41.564;23.280;2022-07-06T01:30:05;98598.81;;;21.70;100.00
6194;BME280;3130;41.564;23.280;2022-07-06T01:32:33;98613.03;;;21.75;100.00
6194;BME280;3130;41.564;23.280;2022-07-06T01:35:01;98603.84;;;21.79;100.00
6194;BME280;3130;41.564;23.280;2022-07-06T01:37:29;98552.91;;;21.37;100.00
6194;BME280;3130;41.564;23.280;2022-07-06T01:39:58;98612.06;;;21.68;100.00
6194;BME280;3130;41.564;23.280;2022-07-06T01:42:26;98583.25;;;21.38;100.00
6194;BME280;3130;41.564;23.280;2022-07-06T01:44:53;98611.28;;;21.52;100.00
6194;BME280;3130;41.564;23.280;2022-07-06T01:47:21;98556.41;;;21.14;100.00
6194;BME280;3130;41.564;23.280;2022-07-06T01:49:48;98620.72;;;21.53;100.00
6194;BME280;3130;41.564;23.280;2022-07-06T01:52:15;98617.31;;;21.52;100.00
6194;BME280;3130;41.564;23.280;2022-07-06T01:54:44;98622.84;;;21.49;100.00
6194;BME280;3130;41.564;23.280;2022-07-06T01:57:11;98626.94;;;21.44;100.00
6194;BME280;3130;41.564;23.280;2022-07-06T01:59:38;98618.16;;;21.29;100.00
6194;BME280;3130;41.564;23.280;2022-07-06T02:02:05;98620.31;;;21.26;100.00
6194;BME280;3130;41.564;23.280;2022-07-06T02:04:33;98615.59;;;21.13;100.00
6194;BME280;3130;41.564;23.280;2022-07-06T02:07:00;98614.44;;;21.00;100.00
6194;BME280;3130;41.564;23.280;2022-07-06T02:09:27;98619.19;;;20.88;100.00
6194;BME280;3130;41.564;23.280;2022-07-06T02:11:56;98617.06;;;20.84;100.00
6194;BME280;3130;41.564;23.280;2022-07-06T02:14:23;98611.50;;;20.79;100.00
6194;BME280;3130;41.564;23.280;2022-07-06T02:16:50;98611.50;;;20.71;100.00
6194;BME280;3130;41.564;23.280;2022-07-06T02:19:17;98575.13;;;20.29;100.00
6194;BME280;3130;41.564;23.280;2022-07-06T02:21:45;98611.50;;;20.55;100.00
6194;BME280;3130;41.564;23.280;2022-07-06T02:24:12;98568.31;;;20.29;100.00
6194;BME280;3130;41.564;23.280;2022-07-06T02:26:39;98619.13;;;20.64;100.00
6194;BME280;3130;41.564;23.280;2022-07-06T02:29:08;98619.63;;;20.68;100.00
6194;BME280;3130;41.564;23.280;2022-07-06T02:31:35;98612.94;;;20.57;100.00
6194;BME280;3130;41.564;23.280;2022-07-06T02:34:02;98627.78;;;20.65;100.00
6194;BME280;3130;41.564;23.280;2022-07-06T02:36:29;98538.63;;;20.14;100.00
6194;BME280;3130;41.564;23.280;2022-07-06T02:38:56;98552.81;;;20.19;100.00
6194;BME280;3130;41.564;23.280;2022-07-06T02:41:24;98626.28;;;20.54;100.00
6194;BME280;3130;41.564;23.280;2022-07-06T02:43:51;98602.16;;;20.36;100.00
6194;BME280;3130;41.564;23.280;2022-07-06T02:46:19;98630.00;;;20.44;100.00
6194;BME280;3130;41.564;23.280;2022-07-06T02:48:47;98634.75;;;20.40;100.00
6194;BME280;3130;41.564;23.280;2022-07-06T02:51:14;98598.38;;;20.23;100.00
6194;BME280;3130;41.564;23.280;2022-07-06T02:53:41;98613.88;;;20.32;100.00
6194;BME280;3130;41.564;23.280;2022-07-06T02:56:08;98640.28;;;20.45;100.00
6194;BME280;3130;41.564;23.280;2022-07-06T02:58:36;98643.88;;;20.44;100.00
6194;BME280;3130;41.564;23.280;2022-07-06T03:01:03;98607.81;;;20.16;100.00
6194;BME280;3130;41.564;23.280;2022-07-06T03:03:32;98616.13;;;20.12;100.00
6194;BME280;3130;41.564;23.280;2022-07-06T03:06:00;98637.13;;;20.26;100.00
6194;BME280;3130;41.564;23.280;2022-07-06T03:08:27;98648.56;;;20.33;100.00
6194;BME280;3130;41.564;23.280;2022-07-06T03:10:54;98645.59;;;20.28;100.00
6194;BME280;3130;41.564;23.280;2022-07-06T03:13:21;98649.34;;;20.26;100.00
6194;BME280;3130;41.564;23.280;2022-07-06T03:15:49;98651.00;;;20.27;100.00
6194;BME280;3130;41.564;23.280;2022-07-06T03:18:16;98638.53;;;20.13;100.00
6194;BME280;3130;41.564;23.280;2022-07-06T03:20:45;98607.22;;;19.97;100.00
6194;BME280;3130;41.564;23.280;2022-07-06T03:23:12;98654.09;;;20.30;100.00
6194;BME280;3130;41.564;23.280;2022-07-06T03:25:39;98644.31;;;20.32;100.00
6194;BME280;3130;41.564;23.280;2022-07-06T03:28:06;98655.22;;;20.35;100.00
6194;BME280;3130;41.564;23.280;2022-07-06T03:30:33;98662.06;;;20.29;100.00
6194;BME280;3130;41.564;23.280;2022-07-06T03:33:00;98651.91;;;20.10;100.00
6194;BME280;3130;41.564;23.280;2022-07-06T03:35:28;98656.56;;;19.98;100.00
6194;BME280;3130;41.564;23.280;2022-07-06T03:37:56;98665.22;;;20.07;100.00
6194;BME280;3130;41.564;23.280;2022-07-06T03:40:24;98665.84;;;20.01;100.00
6194;BME280;3130;41.564;23.280;2022-07-06T03:42:51;98598.19;;;19.67;100.00
6194;BME280;3130;41.564;23.280;2022-07-06T03:45:18;98662.47;;;20.08;100.00
6194;BME280;3130;41.564;23.280;2022-07-06T03:47:45;98666.88;;;20.16;100.00
6194;BME280;3130;41.564;23.280;2022-07-06T03:50:12;98645.50;;;20.04;100.00
6194;BME280;3130;41.564;23.280;2022-07-06T03:52:39;98662.47;;;20.08;100.00
6194;BME280;3130;41.564;23.280;2022-07-06T03:55:10;98552.31;;;19.33;100.00
6194;BME280;3130;41.564;23.280;2022-07-06T03:57:37;98624.03;;;19.69;100.00
6194;BME280;3130;41.564;23.280;2022-07-06T04:00:07;98673.91;;;19.90;100.00
6194;BME280;3130;41.564;23.280;2022-07-06T04:02:35;98673.91;;;19.90;100.00
6194;BME280;3130;41.564;23.280;2022-07-06T04:05:03;98673.28;;;19.96;100.00
6194;BME280;3130;41.564;23.280;2022-07-06T04:07:30;98667.09;;;19.97;100.00
6194;BME280;3130;41.564;23.280;2022-07-06T04:09:57;98635.91;;;19.71;100.00
6194;BME280;3130;41.564;23.280;2022-07-06T04:12:26;98660.59;;;19.93;100.00
6194;BME280;3130;41.564;23.280;2022-07-06T04:14:56;98624.88;;;19.77;100.00
6194;BME280;3130;41.564;23.280;2022-07-06T04:17:23;98648.84;;;19.89;100.00
6194;BME280;3130;41.564;23.280;2022-07-06T04:20:08;98673.84;;;20.07;100.00
6194;BME280;3130;41.564;23.280;2022-07-06T04:22:37;98664.44;;;20.14;100.00
6194;BME280;3130;41.564;23.280;2022-07-06T04:25:05;98663.16;;;20.18;100.00
6194;BME280;3130;41.564;23.280;2022-07-06T04:27:34;98649.31;;;20.18;100.00
6194;BME280;3130;41.564;23.280;2022-07-06T04:30:02;98612.16;;;20.00;100.00
6194;BME280;3130;41.564;23.280;2022-07-06T04:32:29;98667.81;;;20.48;100.00
6194;BME280;3130;41.564;23.280;2022-07-06T04:34:57;98669.97;;;20.60;100.00
6194;BME280;3130;41.564;23.280;2022-07-06T04:37:24;98574.28;;;20.13;100.00
6194;BME280;3130;41.564;23.280;2022-07-06T04:39:52;98573.78;;;20.18;100.00
6194;BME280;3130;41.564;23.280;2022-07-06T04:42:19;98670.00;;;20.84;100.00
6194;BME280;3130;41.564;23.280;2022-07-06T04:44:48;98666.94;;;20.89;100.00
6194;BME280;3130;41.564;23.280;2022-07-06T04:47:17;98663.19;;;20.91;100.00
6194;BME280;3130;41.564;23.280;2022-07-06T04:49:44;98606.41;;;20.53;100.00
6194;BME280;3130;41.564;23.280;2022-07-06T04:52:11;98670.00;;;21.00;100.00
6194;BME280;3130;41.564;23.280;2022-07-06T04:54:39;98577.09;;;20.51;100.00
6194;BME280;3130;41.564;23.280;2022-07-06T04:57:06;98679.47;;;21.25;100.00
6194;BME280;3130;41.564;23.280;2022-07-06T04:59:33;98683.53;;;21.35;99.71
6194;BME280;3130;41.564;23.280;2022-07-06T05:02:03;98616.72;;;21.11;98.66
6194;BME280;3130;41.564;23.280;2022-07-06T05:04:31;98684.34;;;21.68;98.73
6194;BME280;3130;41.564;23.280;2022-07-06T05:06:58;98680.22;;;21.81;96.91
6194;BME280;3130;41.564;23.280;2022-07-06T05:09:26;98570.09;;;21.24;95.91
6194;BME280;3130;41.564;23.280;2022-07-06T05:11:53;98566.47;;;21.40;95.43
6194;BME280;3130;41.564;23.280;2022-07-06T05:14:20;98668.97;;;22.19;94.31
6194;BME280;3130;41.564;23.280;2022-07-06T05:16:48;98595.47;;;21.92;93.63
6194;BME280;3130;41.564;23.280;2022-07-06T05:19:17;98684.19;;;22.54;92.95
6194;BME280;3130;41.564;23.280;2022-07-06T05:21:44;98608.75;;;22.21;92.18
6194;BME280;3130;41.564;23.280;2022-07-06T05:24:11;98686.16;;;22.82;91.20
6194;BME280;3130;41.564;23.280;2022-07-06T05:26:38;98618.72;;;22.47;88.67
6194;BME280;3130;41.564;23.280;2022-07-06T05:29:06;98588.75;;;22.36;89.67
6194;BME280;3130;41.564;23.280;2022-07-06T05:31:33;98600.00;;;22.58;89.97
6194;BME280;3130;41.564;23.280;2022-07-06T05:34:00;98682.38;;;23.30;88.65
6194;BME280;3130;41.564;23.280;2022-07-06T05:36:29;98690.97;;;23.38;88.15
6194;BME280;3130;41.564;23.280;2022-07-06T05:38:56;98689.53;;;23.50;87.25
6194;BME280;3130;41.564;23.280;2022-07-06T05:41:24;98573.78;;;22.89;86.91
6194;BME280;3130;41.564;23.280;2022-07-06T05:43:51;98592.09;;;23.11;85.89
6194;BME280;3130;41.564;23.280;2022-07-06T05:46:19;98622.56;;;23.41;85.73
6194;BME280;3130;41.564;23.280;2022-07-06T05:48:46;98600.69;;;23.34;86.02
6194;BME280;3130;41.564;23.280;2022-07-06T05:51:32;98679.59;;;23.97;84.82
6194;BME280;3130;41.564;23.280;2022-07-06T05:54:00;98690.41;;;24.08;83.00
6194;BME280;3130;41.564;23.280;2022-07-06T05:56:28;98650.88;;;23.89;81.50
6194;BME280;3130;41.564;23.280;2022-07-06T05:58:56;98688.22;;;24.26;80.82
6194;BME280;3130;41.564;23.280;2022-07-06T06:01:27;98616.09;;;23.95;79.33
6194;BME280;3130;41.564;23.280;2022-07-06T06:03:55;98644.22;;;24.22;77.65
6194;BME280;3130;41.564;23.280;2022-07-06T06:06:22;98616.66;;;24.26;76.89
6194;BME280;3130;41.564;23.280;2022-07-06T06:08:51;98684.81;;;24.75;75.87
6194;BME280;3130;41.564;23.280;2022-07-06T06:11:19;98679.94;;;24.93;74.86
6194;BME280;3130;41.564;23.280;2022-07-06T06:13:46;98641.28;;;24.81;74.51
6194;BME280;3130;41.564;23.280;2022-07-06T06:16:14;98649.47;;;25.13;74.88
6194;BME280;3130;41.564;23.280;2022-07-06T06:18:41;98672.50;;;25.39;74.72
6194;BME280;3130;41.564;23.280;2022-07-06T06:21:09;98619.78;;;25.13;74.93
6194;BME280;3130;41.564;23.280;2022-07-06T06:23:37;98654.00;;;25.47;71.95
6194;BME280;3130;41.564;23.280;2022-07-06T06:26:06;98581.94;;;25.28;70.36
6194;BME280;3130;41.564;23.280;2022-07-06T06:28:34;98617.53;;;25.64;69.81
6194;BME280;3130;41.564;23.280;2022-07-06T06:31:02;98564.09;;;25.51;70.31
6194;BME280;3130;41.564;23.280;2022-07-06T06:33:30;98630.72;;;26.05;68.39
6194;BME280;3130;41.564;23.280;2022-07-06T06:35:58;98589.59;;;25.91;66.97
6194;BME280;3130;41.564;23.280;2022-07-06T06:38:25;98662.09;;;26.60;63.83
6194;BME280;3130;41.564;23.280;2022-07-06T06:40:55;98650.56;;;26.67;62.07
6194;BME280;3130;41.564;23.280;2022-07-06T06:43:24;98655.03;;;26.73;63.06
6194;BME280;3130;41.564;23.280;2022-07-06T06:45:52;98651.22;;;26.82;62.03
6194;BME280;3130;41.564;23.280;2022-07-06T06:48:19;98656.47;;;26.82;60.10
6194;BME280;3130;41.564;23.280;2022-07-06T06:50:46;98643.94;;;26.90;59.96
6194;BME280;3130;41.564;23.280;2022-07-06T06:53:14;98593.91;;;26.77;58.13
6194;BME280;3130;41.564;23.280;2022-07-06T06:55:41;98653.09;;;27.20;58.80
6194;BME280;3130;41.564;23.280;2022-07-06T06:58:08;98638.88;;;27.34;57.46
6194;BME280;3130;41.564;23.280;2022-07-06T07:00:37;98639.31;;;27.44;56.24
6194;BME280;3130;41.564;23.280;2022-07-06T07:03:04;98535.16;;;26.90;55.21
6194;BME280;3130;41.564;23.280;2022-07-06T07:05:32;98642.94;;;27.43;54.76
6194;BME280;3130;41.564;23.280;2022-07-06T07:07:59;98645.97;;;27.47;54.81
6194;BME280;3130;41.564;23.280;2022-07-06T07:10:26;98633.63;;;27.54;52.59
6194;BME280;3130;41.564;23.280;2022-07-06T07:12:53;98627.31;;;27.74;52.83
6194;BME280;3130;41.564;23.280;2022-07-06T07:15:20;98584.94;;;27.56;51.60
6194;BME280;3130;41.564;23.280;2022-07-06T07:17:49;98596.28;;;27.63;51.81
6194;BME280;3130;41.564;23.280;2022-07-06T07:20:16;98596.50;;;27.68;51.73
6194;BME280;3130;41.564;23.280;2022-07-06T07:22:43;98602.91;;;27.98;50.96
6194;BME280;3130;41.564;23.280;2022-07-06T07:25:10;98611.16;;;28.08;50.53
6194;BME280;3130;41.564;23.280;2022-07-06T07:27:38;98516.44;;;27.56;49.98
6194;BME280;3130;41.564;23.280;2022-07-06T07:30:06;98589.34;;;27.88;51.41
6194;BME280;3130;41.564;23.280;2022-07-06T07:32:33;98604.72;;;27.97;51.33
6194;BME280;3130;41.564;23.280;2022-07-06T07:35:02;98604.84;;;28.15;50.15
6194;BME280;3130;41.564;23.280;2022-07-06T07:37:29;98566.78;;;27.98;51.15
6194;BME280;3130;41.564;23.280;2022-07-06T07:39:56;98610.88;;;28.35;49.44
6194;BME280;3130;41.564;23.280;2022-07-06T07:42:23;98600.56;;;28.21;49.37
6194;BME280;3130;41.564;23.280;2022-07-06T07:44:50;98600.56;;;28.21;48.92
6194;BME280;3130;41.564;23.280;2022-07-06T07:47:18;98603.59;;;28.31;49.48
6194;BME280;3130;41.564;23.280;2022-07-06T07:49:45;98590.75;;;28.41;48.75
6194;BME280;3130;41.564;23.280;2022-07-06T07:52:14;98602.72;;;28.74;48.26
6194;BME280;3130;41.564;23.280;2022-07-06T07:54:41;98594.56;;;28.75;48.09
6194;BME280;3130;41.564;23.280;2022-07-06T07:57:08;98566.94;;;28.78;46.52
6194;BME280;3130;41.564;23.280;2022-07-06T07:59:36;98555.38;;;28.48;47.75
6194;BME280;3130;41.564;23.280;2022-07-06T08:02:04;98556.06;;;28.92;47.18
6194;BME280;3130;41.564;23.280;2022-07-06T08:04:32;98603.44;;;29.36;45.33
6194;BME280;3130;41.564;23.280;2022-07-06T08:06:59;98570.31;;;28.91;45.68
6194;BME280;3130;41.564;23.280;2022-07-06T08:09:28;98579.47;;;28.89;45.72
6194;BME280;3130;41.564;23.280;2022-07-06T08:11:55;98609.06;;;29.22;46.81
6194;BME280;3130;41.564;23.280;2022-07-06T08:14:22;98603.59;;;28.99;46.37
6194;BME280;3130;41.564;23.280;2022-07-06T08:16:49;98620.78;;;28.77;47.25
6194;BME280;3130;41.564;23.280;2022-07-06T08:19:17;98625.41;;;28.51;47.36
6194;BME280;3130;41.564;23.280;2022-07-06T08:21:44;98626.00;;;28.53;48.96
6194;BME280;3130;41.564;23.280;2022-07-06T08:24:12;98605.28;;;28.56;49.04
6194;BME280;3130;41.564;23.280;2022-07-06T08:26:41;98620.22;;;28.69;48.20
6194;BME280;3130;41.564;23.280;2022-07-06T08:29:08;98625.75;;;28.91;48.11
6194;BME280;3130;41.564;23.280;2022-07-06T08:31:36;98543.44;;;28.70;47.24
6194;BME280;3130;41.564;23.280;2022-07-06T08:34:03;98619.75;;;29.33;47.75
6194;BME280;3130;41.564;23.280;2022-07-06T08:36:31;98617.16;;;29.51;46.71
6194;BME280;3130;41.564;23.280;2022-07-06T08:38:58;98577.09;;;29.30;46.54
6194;BME280;3130;41.564;23.280;2022-07-06T08:41:28;98532.28;;;28.99;46.35
6194;BME280;3130;41.564;23.280;2022-07-06T08:43:57;98525.88;;;28.88;47.13
6194;BME280;3130;41.564;23.280;2022-07-06T08:46:27;98579.25;;;28.90;47.81
6194;BME280;3130;41.564;23.280;2022-07-06T08:48:56;98607.50;;;29.14;47.03
6194;BME280;3130;41.564;23.280;2022-07-06T08:51:24;98605.50;;;29.34;46.73
6194;BME280;3130;41.564;23.280;2022-07-06T08:53:51;98607.13;;;29.35;46.04
6194;BME280;3130;41.564;23.280;2022-07-06T08:56:20;98601.00;;;29.41;45.67
6194;BME280;3130;41.564;23.280;2022-07-06T08:58:47;98608.03;;;29.47;45.50
6194;BME280;3130;41.564;23.280;2022-07-06T09:01:17;98604.53;;;29.53;45.37
6194;BME280;3130;41.564;23.280;2022-07-06T09:03:46;98581.69;;;29.59;44.90
6194;BME280;3130;41.564;23.280;2022-07-06T09:06:16;98600.19;;;29.77;44.42
6194;BME280;3130;41.564;23.280;2022-07-06T09:08:47;98587.34;;;29.80;44.21
6194;BME280;3130;41.564;23.280;2022-07-06T09:11:16;98532.28;;;29.59;43.98
6194;BME280;3130;41.564;23.280;2022-07-06T09:13:43;98605.25;;;30.14;41.98
6194;BME280;3130;41.564;23.280;2022-07-06T09:16:12;98600.66;;;30.09;42.25
6194;BME280;3130;41.564;23.280;2022-07-06T09:18:44;98556.34;;;29.87;42.31
6194;BME280;3130;41.564;23.280;2022-07-06T09:21:12;98599.44;;;30.23;42.77
6194;BME280;3130;41.564;23.280;2022-07-06T09:23:53;98575.50;;;30.18;42.71
6194;BME280;3130;41.564;23.280;2022-07-06T09:26:21;98612.19;;;30.44;42.38
6194;BME280;3130;41.564;23.280;2022-07-06T09:28:49;98614.94;;;30.56;41.42
6194;BME280;3130;41.564;23.280;2022-07-06T09:31:17;98600.66;;;30.57;40.19
6194;BME280;3130;41.564;23.280;2022-07-06T09:33:56;98608.97;;;30.13;39.89
6194;BME280;3130;41.564;23.280;2022-07-06T09:36:39;98599.28;;;30.07;40.33
6194;BME280;3130;41.564;23.280;2022-07-06T09:39:20;98591.16;;;30.20;39.24
6194;BME280;3130;41.564;23.280;2022-07-06T09:41:49;98528.19;;;29.92;38.72
6194;BME280;3130;41.564;23.280;2022-07-06T09:44:24;98556.84;;;30.43;39.52
6194;BME280;3130;41.564;23.280;2022-07-06T09:46:52;98561.00;;;30.80;39.37
6194;BME280;3130;41.564;23.280;2022-07-06T09:49:22;98588.88;;;30.93;38.91
6194;BME280;3130;41.564;23.280;2022-07-06T09:51:51;98571.38;;;31.04;38.54
6194;BME280;3130;41.564;23.280;2022-07-06T09:54:19;98575.53;;;31.00;39.75
6194;BME280;3130;41.564;23.280;2022-07-06T09:56:48;98574.66;;;31.06;38.96
6194;BME280;3130;41.564;23.280;2022-07-06T09:59:18;98531.63;;;30.92;39.20
6194;BME280;3130;41.564;23.280;2022-07-06T10:01:47;98571.06;;;31.23;37.74
6194;BME280;3130;41.564;23.280;2022-07-06T10:04:17;98566.47;;;31.19;37.64
6194;BME280;3130;41.564;23.280;2022-07-06T10:06:47;98562.66;;;31.15;37.67
6194;BME280;3130;41.564;23.280;2022-07-06T10:09:15;98488.09;;;30.66;38.18
6194;BME280;3130;41.564;23.280;2022-07-06T10:11:48;98552.50;;;31.23;38.31
6194;BME280;3130;41.564;23.280;2022-07-06T10:14:18;98564.97;;;31.34;37.45
6194;BME280;3130;41.564;23.280;2022-07-06T10:16:47;98528.06;;;31.10;37.25
6194;BME280;3130;41.564;23.280;2022-07-06T10:19:16;98516.78;;;31.03;38.28
6194;BME280;3130;41.564;23.280;2022-07-06T10:21:45;98555.03;;;31.30;38.36
6194;BME280;3130;41.564;23.280;2022-07-06T10:24:15;98539.63;;;31.15;38.33
6194;BME280;3130;41.564;23.280;2022-07-06T10:26:43;98537.75;;;31.27;38.98
6194;BME280;3130;41.564;23.280;2022-07-06T10:29:10;98545.91;;;31.37;37.67
6194;BME280;3130;41.564;23.280;2022-07-06T10:31:40;98563.34;;;31.33;38.01
6194;BME280;3130;41.564;23.280;2022-07-06T10:34:10;98534.53;;;31.14;38.62
6194;BME280;3130;41.564;23.280;2022-07-06T10:36:39;98565.88;;;31.17;39.08
6194;BME280;3130;41.564;23.280;2022-07-06T10:39:07;98507.09;;;30.74;38.43
6194;BME280;3130;41.564;23.280;2022-07-06T10:41:53;98534.63;;;30.96;38.72
6194;BME280;3130;41.564;23.280;2022-07-06T10:44:22;98464.09;;;30.49;38.35
6194;BME280;3130;41.564;23.280;2022-07-06T10:46:51;98480.81;;;30.61;38.53
6194;BME280;3130;41.564;23.280;2022-07-06T10:49:20;98462.22;;;30.50;36.16
6194;BME280;3130;41.564;23.280;2022-07-06T10:51:48;98533.28;;;31.05;36.59
6194;BME280;3130;41.564;23.280;2022-07-06T10:54:17;98535.81;;;31.11;36.47
6194;BME280;3130;41.564;23.280;2022-07-06T10:56:45;98532.25;;;31.17;37.19
6194;BME280;3130;41.564;23.280;2022-07-06T10:59:16;98543.41;;;31.19;37.96
6194;BME280;3130;41.564;23.280;2022-07-06T11:02:11;98535.56;;;31.24;38.00
6194;BME280;3130;41.564;23.280;2022-07-06T11:04:38;98522.88;;;31.03;37.47
6194;BME280;3130;41.564;23.280;2022-07-06T11:07:09;98527.38;;;31.03;37.20
6194;BME280;3130;41.564;23.280;2022-07-06T11:09:37;98548.38;;;31.16;37.46
6194;BME280;3130;41.564;23.280;2022-07-06T11:12:18;98531.31;;;31.00;37.85
6194;BME280;3130;41.564;23.280;2022-07-06T11:14:49;98530.94;;;30.97;36.70
6194;BME280;3130;41.564;23.280;2022-07-06T11:17:17;98533.94;;;30.89;36.80
6194;BME280;3130;41.564;23.280;2022-07-06T11:19:52;98495.47;;;30.64;38.25
6194;BME280;3130;41.564;23.280;2022-07-06T11:22:22;98488.31;;;30.64;37.34
6194;BME280;3130;41.564;23.280;2022-07-06T11:24:51;98511.00;;;30.83;37.20
6194;BME280;3130;41.564;23.280;2022-07-06T11:27:20;98521.34;;;30.84;36.74
6194;BME280;3130;41.564;23.280;2022-07-06T11:29:51;98432.75;;;30.46;37.19
6194;BME280;3130;41.564;23.280;2022-07-06T11:32:23;98513.69;;;31.17;37.66
6194;BME280;3130;41.564;23.280;2022-07-06T11:34:51;98520.50;;;31.13;37.96
6194;BME280;3130;41.564;23.280;2022-07-06T11:37:19;98497.31;;;30.97;37.36
6194;BME280;3130;41.564;23.280;2022-07-06T11:39:48;98449.63;;;30.86;36.80
6194;BME280;3130;41.564;23.280;2022-07-06T11:42:16;98500.31;;;31.35;36.87
6194;BME280;3130;41.564;23.280;2022-07-06T11:44:45;98482.28;;;31.49;35.72
6194;BME280;3130;41.564;23.280;2022-07-06T11:47:14;98486.91;;;31.53;35.29
6194;BME280;3130;41.564;23.280;2022-07-06T11:49:41;98477.25;;;31.24;36.06
6194;BME280;3130;41.564;23.280;2022-07-06T11:52:12;98468.97;;;31.21;35.52
6194;BME280;3130;41.564;23.280;2022-07-06T11:54:40;98478.25;;;31.46;35.86
6194;BME280;3130;41.564;23.280;2022-07-06T11:57:10;98490.03;;;31.62;36.55
6194;BME280;3130;41.564;23.280;2022-07-06T11:59:39;98483.53;;;31.69;36.35
6194;BME280;3130;41.564;23.280;2022-07-06T12:02:08;98484.00;;;31.66;36.44
6194;BME280;3130;41.564;23.280;2022-07-06T12:04:38;98487.09;;;31.75;36.22
6194;BME280;3130;41.564;23.280;2022-07-06T12:07:07;98462.97;;;31.76;35.64
6194;BME280;3130;41.564;23.280;2022-07-06T12:09:38;98470.91;;;31.76;35.76
6194;BME280;3130;41.564;23.280;2022-07-06T12:12:06;98467.31;;;31.82;35.96
6194;BME280;3130;41.564;23.280;2022-07-06T12:14:37;98440.53;;;31.56;36.47
6194;BME280;3130;41.564;23.280;2022-07-06T12:17:06;98479.97;;;31.92;35.37
6194;BME280;3130;41.564;23.280;2022-07-06T12:19:35;98464.78;;;31.87;35.08
6194;BME280;3130;41.564;23.280;2022-07-06T12:22:04;98392.59;;;31.46;35.06
6194;BME280;3130;41.564;23.280;2022-07-06T12:24:33;98432.88;;;31.71;35.67
6194;BME280;3130;41.564;23.280;2022-07-06T12:27:11;98453.59;;;31.85;35.02
6194;BME280;3130;41.564;23.280;2022-07-06T12:29:39;98460.47;;;31.97;34.78
6194;BME280;3130;41.564;23.280;2022-07-06T12:32:13;98441.38;;;31.84;35.05
6194;BME280;3130;41.564;23.280;2022-07-06T12:34:40;98466.41;;;32.04;34.60
6194;BME280;3130;41.564;23.280;2022-07-06T12:37:10;98471.16;;;32.02;33.83
6194;BME280;3130;41.564;23.280;2022-07-06T12:39:41;98454.81;;;31.94;33.89
6194;BME280;3130;41.564;23.280;2022-07-06T12:42:09;98452.41;;;31.92;34.58
6194;BME280;3130;41.564;23.280;2022-07-06T12:44:43;98362.91;;;31.32;33.82
6194;BME280;3130;41.564;23.280;2022-07-06T12:47:11;98439.28;;;31.86;33.89
6194;BME280;3130;41.564;23.280;2022-07-06T12:49:39;98426.19;;;31.80;34.15
6194;BME280;3130;41.564;23.280;2022-07-06T12:52:11;98440.97;;;31.92;33.26
6194;BME280;3130;41.564;23.280;2022-07-06T12:54:41;98423.31;;;31.97;34.08
6194;BME280;3130;41.564;23.280;2022-07-06T12:57:11;98427.53;;;32.10;33.98
6194;BME280;3130;41.564;23.280;2022-07-06T12:59:43;98439.47;;;32.24;34.64
6194;BME280;3130;41.564;23.280;2022-07-06T13:02:18;98423.72;;;32.06;34.42
6194;BME280;3130;41.564;23.280;2022-07-06T13:04:55;98415.09;;;31.99;34.28
6194;BME280;3130;41.564;23.280;2022-07-06T13:07:24;98386.66;;;31.67;34.84
6194;BME280;3130;41.564;23.280;2022-07-06T13:09:52;98428.69;;;32.02;34.97
6194;BME280;3130;41.564;23.280;2022-07-06T13:12:20;98425.56;;;32.05;34.68
6194;BME280;3130;41.564;23.280;2022-07-06T13:14:49;98429.47;;;31.87;34.63